»·PEaware :: N314TR EGLL-LSZH

N314TR :: EGLL-LSZH

FLIGHT INFORMATION

Flight Status: Arrived
Operator: Privately registered:
United States
More flights under this callsign
Pilot: Timothy W. (9658)
Aircraft: AIRBUS A320
(A320)
More flights by this aircraft type
Origin: EGLL Heathrow
United Kingdom
Destination: LSZH Zurich
Switzerland
More flights between these airports :: More routes between these airports
Route: DET UL6 DVR UL10 LESDO UL15 BEGAR UN491 TRA
File this flight plan on PilotEdge
Remarks:
Altitude:
(Current/Filed)
29,000ft
Speed:
(Current/Filed)
450kts
Departed: 21-Mar-16 09:37 AM
Arrived: 21-Mar-16 10:27 AM
Distance/Time
Traveled:
426nm/0:50
Distance/Time
To Go:
Arrived

Flight Plot

Page will automatically refresh every two minutes.


Map Options




Map Legend


Flown Route
Filed Route
Departure Airport
Arrival Airport
Navaid (VOR, NDB)
Fix

Horizontal Profiles

Position Reports

Time Latitude Longitude Heading Altitude Ground
Speed
21-Mar-16 09:28 49.736378 3.433996 134 29192ft 464kts
21-Mar-16 09:29 49.645901 3.576637 134 29180ft 465kts
21-Mar-16 09:30 49.555979 3.717529 134 29169ft 465kts
21-Mar-16 09:31 49.464444 3.860185 134 29167ft 465kts
21-Mar-16 09:32 49.373131 4.001134 134 29167ft 465kts
21-Mar-16 09:33 49.282471 4.141619 134 29167ft 465kts
21-Mar-16 09:34 49.191569 4.282560 135 29167ft 465kts
21-Mar-16 09:35 49.108608 4.421241 141 29204ft 438kts
21-Mar-16 09:36 49.027588 4.559783 141 29147ft 438kts
21-Mar-16 09:37 48.987659 4.745572 115 29147ft 474kts
21-Mar-16 09:38 48.935550 4.924203 129 29140ft 456kts
21-Mar-16 09:39 48.872611 5.091954 128 29139ft 456kts
21-Mar-16 09:40 48.811224 5.259924 129 29139ft 456kts
21-Mar-16 09:41 48.749265 5.426246 129 29134ft 455kts
21-Mar-16 09:42 48.686468 5.592755 129 29116ft 455kts
21-Mar-16 09:43 48.623829 5.757937 129 29112ft 455kts
21-Mar-16 09:44 48.561293 5.922119 129 29112ft 455kts
21-Mar-16 09:45 48.498235 6.087000 129 29113ft 455kts
21-Mar-16 09:46 48.435778 6.251486 130 29125ft 454kts
21-Mar-16 09:47 48.371840 6.415859 129 28257ft 456kts
21-Mar-16 09:48 48.307448 6.580528 129 27252ft 457kts
21-Mar-16 09:49 48.242765 6.745034 128 26250ft 459kts
21-Mar-16 09:50 48.178389 6.907988 128 25250ft 452kts
21-Mar-16 09:51 48.114290 7.069217 127 24241ft 445kts
21-Mar-16 09:52 48.051994 7.227560 127 23239ft 438kts
21-Mar-16 09:53 47.990259 7.381556 127 21874ft 429kts
21-Mar-16 09:54 47.929806 7.530985 126 20382ft 421kts
21-Mar-16 09:55 47.881084 7.688108 116 18874ft 404kts
21-Mar-16 09:56 47.839618 7.846593 115 17364ft 410kts
21-Mar-16 09:57 47.798922 8.001352 114 14893ft 395kts
21-Mar-16 09:58 47.761140 8.149696 111 12288ft 381kts
21-Mar-16 09:59 47.723073 8.292017 129 9526ft 343kts
21-Mar-16 10:00 47.659202 8.329760 187 8391ft 280kts
21-Mar-16 10:01 47.601887 8.372978 139 7779ft 207kts
21-Mar-16 10:02 47.555672 8.435833 137 6373ft 190kts
21-Mar-16 10:03 47.523661 8.479425 138 5408ft 187kts
21-Mar-16 10:04 47.485478 8.531095 137 4280ft 184kts
21-Mar-16 10:05 47.443172 8.547743 225 4018ft 192kts
21-Mar-16 10:06 47.407856 8.488625 227 4010ft 191kts
21-Mar-16 10:07 47.417120 8.424657 317 4005ft 196kts
21-Mar-16 10:08 47.457249 8.371089 317 3661ft 194kts
21-Mar-16 10:09 47.497313 8.317448 317 3504ft 194kts
21-Mar-16 10:10 47.537468 8.263867 317 3504ft 194kts
21-Mar-16 10:11 47.578337 8.212036 346 3493ft 194kts
21-Mar-16 10:12 47.591779 8.264930 115 3503ft 183kts
21-Mar-16 10:13 47.571606 8.329998 115 3000ft 148kts
21-Mar-16 10:14 47.554765 8.385130 114 3001ft 147kts
21-Mar-16 10:15 47.539143 8.440830 114 2898ft 142kts
21-Mar-16 10:16 47.517129 8.489625 141 2387ft 145kts
21-Mar-16 10:17 47.487642 8.528547 136 1629ft 136kts
21-Mar-16 10:18 47.470568 8.551854 137 1426ft 42kts
21-Mar-16 10:19 47.465333 8.557018 167 1426ft 0kts
21-Mar-16 10:20 47.465311 8.557025 167 1426ft 1kts
21-Mar-16 10:21 47.463597 8.557586 168 1426ft 11kts
21-Mar-16 10:22 47.461519 8.557804 186 1426ft 0kts
21-Mar-16 10:23 47.461519 8.557804 186 1426ft 0kts
21-Mar-16 10:24 47.461519 8.557804 186 1426ft 0kts
21-Mar-16 10:25 47.461519 8.557804 186 1426ft 0kts
21-Mar-16 10:26 47.461519 8.557804 186 1426ft 0kts
21-Mar-16 10:27 47.461519 8.557804 186 1426ft 0kts
21-Mar-16 10:28 47.461519 8.557804 186 1426ft 0kts
21-Mar-16 10:29 47.461519 8.557804 186 1426ft 0kts
21-Mar-16 10:30 47.461519 8.557804 186 1426ft 0kts
21-Mar-16 10:31 47.461519 8.557804 186 1426ft 0kts
21-Mar-16 10:32 47.461519 8.557804 186 1426ft 0kts
21-Mar-16 10:33 47.461519 8.557804 186 1426ft 0kts

Navigation Log

Ident Type
Flight plan parsing failed, navigation log unavailable